Time;durP1;ratioP1;P1;durP2;ratioP2;P2;SDS_P1;SDS_P2;PMS_P1;PMS_P2;Temp;Humidity;BMP_temperature;BMP_pressure;BME280_temperature;BME280_humidity;BME280_pressure;Samples;Min_cycle;Max_cycle;Signal;HPM_P1;HPM_P2
2023/01/11 00:01:34;;;;;;;5.15;3.38;;;7.70;99.90;;;;;;4975150;28;20054;-71
2023/01/11 00:04:00;;;;;;;3.28;2.75;;;7.80;99.90;;;;;;4973618;28;20054;-72
2023/01/11 00:06:27;;;;;;;4.03;3.03;;;7.70;99.90;;;;;;4974483;28;20055;-72
2023/01/11 00:08:54;;;;;;;4.30;3.30;;;7.80;99.90;;;;;;4974951;28;20125;-72
2023/01/11 00:11:20;;;;;;;3.78;3.17;;;7.70;99.90;;;;;;4974857;28;20450;-72
2023/01/11 00:13:46;;;;;;;4.55;3.25;;;7.80;99.90;;;;;;4973242;28;20126;-72
2023/01/11 00:16:12;;;;;;;5.07;3.30;;;7.80;99.90;;;;;;4974468;28;20046;-72
2023/01/11 00:18:39;;;;;;;2.97;2.65;;;7.80;99.90;;;;;;4974551;28;20069;-72
2023/01/11 00:21:06;;;;;;;5.10;3.38;;;7.80;99.90;;;;;;4974424;28;20139;-71
2023/01/11 00:23:33;;;;;;;5.15;3.40;;;7.80;99.90;;;;;;4973985;28;20065;-71
2023/01/11 00:26:02;;;;;;;4.05;2.83;;;7.90;99.90;;;;;;4974417;28;20051;-71
2023/01/11 00:28:28;;;;;;;4.38;3.33;;;7.90;99.90;;;;;;4974365;28;20046;-71
2023/01/11 00:30:54;;;;;;;4.05;3.10;;;8.00;99.90;;;;;;4974997;28;20479;-72
2023/01/11 00:33:19;;;;;;;3.83;2.88;;;7.90;99.90;;;;;;4974228;28;20046;-72
2023/01/11 00:35:45;;;;;;;3.58;2.75;;;7.90;99.90;;;;;;4957404;28;20054;-72
2023/01/11 00:38:42;;;;;;;5.40;2.80;;;8.00;99.90;;;;;;4974648;28;20047;-71
2023/01/11 00:40:56;;;;;;;4.05;2.40;;;8.00;99.90;;;;;;4974713;28;20055;-72
2023/01/11 00:48:52;;;;;;;2.78;1.95;;;8.00;99.90;;;;;;4973606;28;20059;-72
2023/01/11 00:51:18;;;;;;;3.25;2.60;;;8.10;99.90;;;;;;4974818;28;20053;-71
2023/01/11 00:53:47;;;;;;;4.30;2.50;;;8.10;99.90;;;;;;4974638;28;20047;-72
2023/01/11 00:56:12;;;;;;;3.50;2.30;;;8.10;99.90;;;;;;4973996;28;20113;-71
2023/01/11 00:58:38;;;;;;;2.60;2.17;;;8.20;99.90;;;;;;4976589;28;20133;-71
2023/01/11 01:01:07;;;;;;;4.13;2.40;;;8.20;99.90;;;;;;4978507;28;20058;-71
2023/01/11 01:03:33;;;;;;;3.75;2.35;;;8.20;99.90;;;;;;4977627;28;20119;-71
2023/01/11 01:05:58;;;;;;;3.13;2.30;;;8.20;99.90;;;;;;4977540;28;20059;-71
2023/01/11 01:08:24;;;;;;;2.83;2.10;;;8.20;99.90;;;;;;4978801;28;20141;-71
2023/01/11 01:10:51;;;;;;;2.60;2.13;;;8.20;99.90;;;;;;4960418;28;20109;-72
2023/01/11 01:16:01;;;;;;;3.38;2.50;;;8.30;99.90;;;;;;4977385;28;20063;-71
2023/01/11 01:18:26;;;;;;;2.78;2.10;;;8.30;99.90;;;;;;4977421;28;20049;-71
2023/01/11 01:20:52;;;;;;;3.00;2.28;;;8.50;99.90;;;;;;4977342;28;20057;-71
2023/01/11 01:23:18;;;;;;;3.53;2.08;;;8.30;99.90;;;;;;4977595;28;20097;-71
2023/01/11 01:25:43;;;;;;;2.80;2.15;;;8.30;99.90;;;;;;4961057;28;20051;-71
2023/01/11 01:28:09;;;;;;;3.50;2.30;;;8.40;99.90;;;;;;4977525;28;20047;-71
2023/01/11 01:30:35;;;;;;;3.40;2.63;;;8.40;99.90;;;;;;4977229;28;20489;-71
2023/01/11 01:33:00;;;;;;;4.00;2.60;;;8.40;99.90;;;;;;4977150;28;20146;-71
2023/01/11 01:35:26;;;;;;;2.92;2.28;;;8.40;99.90;;;;;;4975749;28;20042;-71
2023/01/11 01:37:52;;;;;;;2.90;2.42;;;8.40;99.90;;;;;;4977003;28;20054;-71
2023/01/11 01:40:17;;;;;;;3.80;2.50;;;8.40;99.90;;;;;;4975915;28;20078;-71
2023/01/11 01:42:43;;;;;;;2.90;2.42;;;8.50;99.90;;;;;;4977554;28;20418;-70
2023/01/11 01:45:26;;;;;;;2.97;1.95;;;8.50;99.90;;;;;;4977421;28;20039;-71
2023/01/11 01:48:00;;;;;;;4.05;2.05;;;8.50;99.90;;;;;;4977227;28;20079;-71
2023/01/11 01:50:38;;;;;;;2.65;2.20;;;8.50;99.90;;;;;;4976913;28;20055;-71
2023/01/11 01:53:17;;;;;;;3.17;2.00;;;8.70;99.90;;;;;;4977404;28;20047;-72
2023/01/11 01:55:48;;;;;;;3.17;2.05;;;8.50;99.90;;;;;;4977340;28;20049;-71
2023/01/11 01:58:19;;;;;;;2.70;2.20;;;8.50;99.90;;;;;;4976748;28;20051;-73
2023/01/11 02:00:45;;;;;;;2.88;2.45;;;8.60;99.90;;;;;;4976697;28;20405;-72
2023/01/11 02:03:19;;;;;;;2.45;1.98;;;8.50;99.90;;;;;;4976226;28;20049;-72
2023/01/11 02:05:46;;;;;;;2.67;2.00;;;8.60;99.90;;;;;;4977198;28;20059;-72
2023/01/11 02:08:44;;;;;;;2.60;2.25;;;8.60;99.90;;;;;;4975238;28;20109;-72
2023/01/11 02:11:28;;;;;;;3.08;2.20;;;8.60;99.90;;;;;;4974878;28;20109;-72
2023/01/11 02:13:59;;;;;;;2.95;2.50;;;8.90;99.90;;;;;;4975391;28;20051;-71
2023/01/11 02:16:25;;;;;;;4.10;2.42;;;8.70;99.90;;;;;;4977004;28;20055;-71
2023/01/11 02:18:52;;;;;;;2.47;2.03;;;8.70;99.90;;;;;;4976101;28;20099;-71
2023/01/11 02:21:45;;;;;;;3.13;2.40;;;8.70;99.90;;;;;;4975261;28;20492;-71
2023/01/11 02:24:37;;;;;;;4.83;2.50;;;8.80;99.90;;;;;;4976836;28;20043;-71
2023/01/11 02:27:40;;;;;;;2.80;1.88;;;8.70;99.90;;;;;;4960111;28;20298;-73
2023/01/11 02:30:34;;;;;;;3.60;2.47;;;8.70;99.90;;;;;;4975144;28;20055;-73
2023/01/11 02:33:27;;;;;;;3.63;2.38;;;8.80;99.90;;;;;;4976094;28;20054;-73
2023/01/11 02:36:01;;;;;;;3.55;2.08;;;8.80;99.90;;;;;;4974880;28;20129;-72
2023/01/11 02:38:35;;;;;;;3.47;2.47;;;8.80;99.90;;;;;;4975977;28;20081;-76
2023/01/11 02:45:00;;;;;;;5.07;2.30;;;8.80;99.90;;;;;;4975977;28;20050;-73
2023/01/11 02:47:17;;;;;;;5.75;2.53;;;9.10;99.90;;;;;;4975825;28;20522;-73
2023/01/11 02:50:09;;;;;;;4.03;2.20;;;8.90;99.90;;;;;;4975905;28;20095;-74
2023/01/11 02:52:45;;;;;;;3.67;2.45;;;8.90;99.90;;;;;;4975508;28;20511;-72
2023/01/11 02:55:13;;;;;;;3.50;2.47;;;9.10;99.90;;;;;;4975886;28;20421;-72
2023/01/11 02:57:41;;;;;;;4.70;2.40;;;9.00;99.90;;;;;;4975627;28;20125;-72
2023/01/11 03:00:09;;;;;;;2.35;2.13;;;9.00;99.90;;;;;;4975538;28;20451;-72
2023/01/11 03:02:35;;;;;;;4.97;2.30;;;9.00;99.90;;;;;;4975574;28;20061;-72
2023/01/11 03:05:00;;;;;;;2.83;2.35;;;9.00;99.90;;;;;;4974435;28;20038;-72
2023/01/11 03:07:26;;;;;;;3.05;2.13;;;9.00;99.90;;;;;;4975643;28;20142;-72
2023/01/11 03:10:40;;;;;;;3.13;2.05;;;9.10;99.90;;;;;;4974477;28;20404;-72
2023/01/11 03:13:24;;;;;;;2.55;1.60;;;9.10;99.90;;;;;;4965764;28;20096;-72
2023/01/11 03:16:36;;;;;;;3.30;1.70;;;9.10;99.90;;;;;;4975263;28;20511;-72
2023/01/11 03:19:02;;;;;;;4.18;1.95;;;9.10;99.90;;;;;;4962802;28;20418;-73
2023/01/11 03:21:34;;;;;;;2.80;1.52;;;9.20;99.90;;;;;;4974780;28;20133;-72
2023/01/11 03:24:00;;;;;;;3.53;1.65;;;9.20;99.90;;;;;;4976005;28;20121;-72
2023/01/11 03:26:52;;;;;;;2.08;1.52;;;9.20;99.90;;;;;;4973713;28;20468;-72
2023/01/11 03:29:30;;;;;;;2.45;1.70;;;9.20;99.90;;;;;;4974336;28;20065;-72
2023/01/11 03:32:05;;;;;;;2.65;1.35;;;9.20;99.90;;;;;;4975083;28;20145;-72
2023/01/11 03:34:57;;;;;;;3.08;1.88;;;9.20;99.90;;;;;;4974465;28;20369;-72
2023/01/11 03:37:54;;;;;;;3.17;2.10;;;9.30;99.90;;;;;;4974586;28;20487;-72
2023/01/11 03:40:41;;;;;;;2.97;1.67;;;9.20;99.90;;;;;;4975518;28;20464;-72
2023/01/11 03:43:10;;;;;;;3.65;1.58;;;9.50;99.90;;;;;;4973820;28;20511;-72
2023/01/11 03:45:56;;;;;;;3.13;1.67;;;9.30;99.90;;;;;;4974894;28;20042;-72
2023/01/11 03:48:30;;;;;;;2.30;1.35;;;9.30;99.90;;;;;;4975411;28;20055;-72
2023/01/11 03:50:58;;;;;;;2.22;1.60;;;9.40;99.90;;;;;;4975582;28;20058;-73
2023/01/11 03:53:27;;;;;;;3.13;1.70;;;9.40;99.90;;;;;;4975239;28;20129;-72
2023/01/11 03:55:56;;;;;;;3.35;1.73;;;9.40;99.90;;;;;;4973570;28;20457;-72
2023/01/11 03:58:25;;;;;;;3.97;1.73;;;9.40;99.90;;;;;;4974721;28;20057;-72
2023/01/11 04:00:53;;;;;;;3.97;1.90;;;9.40;99.90;;;;;;4974693;28;20495;-72
2023/01/11 04:03:19;;;;;;;3.72;2.25;;;9.40;99.90;;;;;;4975082;28;20046;-72
2023/01/11 04:05:50;;;;;;;6.55;2.22;;;9.40;99.90;;;;;;4974634;28;20586;-72
2023/01/11 04:08:16;;;;;;;10.27;4.32;;;9.40;99.90;;;;;;4975099;28;20088;-72
2023/01/11 04:10:41;;;;;;;6.13;3.08;;;9.40;99.90;;;;;;4974600;28;20531;-72
2023/01/11 04:13:07;;;;;;;4.90;1.98;;;9.50;99.90;;;;;;4974598;28;20542;-72
2023/01/11 04:15:34;;;;;;;6.45;3.67;;;9.50;99.90;;;;;;4974495;28;20370;-73
2023/01/11 04:18:04;;;;;;;5.70;3.25;;;9.50;99.90;;;;;;4974485;28;20500;-77
2023/01/11 04:20:35;;;;;;;4.93;3.10;;;9.50;99.90;;;;;;4973597;28;20396;-72
2023/01/11 04:23:01;;;;;;;4.40;2.50;;;9.60;99.90;;;;;;4974507;28;20046;-74
2023/01/11 04:25:27;;;;;;;3.67;1.63;;;9.60;99.90;;;;;;4974498;28;20085;-71
2023/01/11 04:27:53;;;;;;;0.80;0.60;;;9.60;99.90;;;;;;4974458;28;20491;-72
2023/01/11 04:30:19;;;;;;;0.40;0.30;;;9.60;99.90;;;;;;4974792;28;20129;-72
2023/01/11 04:32:44;;;;;;;0.43;0.30;;;9.70;99.90;;;;;;4978126;28;20062;-72
2023/01/11 04:35:10;;;;;;;0.55;0.20;;;9.70;99.90;;;;;;4961070;28;20043;-72
2023/01/11 04:37:36;;;;;;;0.45;0.30;;;9.70;99.90;;;;;;4978491;28;20102;-72
2023/01/11 04:40:02;;;;;;;0.25;0.25;;;9.60;99.90;;;;;;4977486;28;20047;-72
2023/01/11 04:42:28;;;;;;;0.40;0.30;;;9.70;99.90;;;;;;4978417;28;20138;-72
2023/01/11 04:44:53;;;;;;;1.08;0.30;;;9.70;99.90;;;;;;4977172;28;20469;-73
2023/01/11 04:47:22;;;;;;;0.60;0.30;;;9.70;99.90;;;;;;4978035;28;20134;-73
2023/01/11 04:49:48;;;;;;;0.50;0.30;;;9.70;99.90;;;;;;4977969;28;20042;-72
2023/01/11 04:52:16;;;;;;;1.10;0.32;;;9.70;99.90;;;;;;4977924;28;20051;-72
2023/01/11 04:54:42;;;;;;;1.58;0.40;;;9.70;99.90;;;;;;4977806;28;20038;-73
2023/01/11 04:57:12;;;;;;;1.25;0.40;;;9.70;99.90;;;;;;4977632;28;20046;-72
2023/01/11 04:59:38;;;;;;;1.25;0.73;;;9.70;99.90;;;;;;4978117;28;20092;-72
2023/01/11 05:02:04;;;;;;;1.42;0.60;;;9.70;99.90;;;;;;4977790;28;20490;-72
2023/01/11 05:04:29;;;;;;;2.13;0.60;;;9.70;99.90;;;;;;4976431;28;20540;-72
2023/01/11 05:06:55;;;;;;;2.28;0.70;;;9.80;99.90;;;;;;4977831;28;20098;-71
2023/01/11 05:09:21;;;;;;;2.92;0.70;;;9.80;99.90;;;;;;4978368;28;20042;-73
2023/01/11 05:11:47;;;;;;;2.80;0.85;;;9.80;99.90;;;;;;4976604;28;20043;-72
2023/01/11 05:14:14;;;;;;;6.30;0.88;;;9.80;99.90;;;;;;4977100;28;20047;-75
2023/01/11 05:16:40;;;;;;;1.83;0.60;;;9.80;99.90;;;;;;4978041;28;20094;-74
2023/01/11 05:19:08;;;;;;;2.65;0.50;;;9.80;99.90;;;;;;4977405;28;20050;-72
2023/01/11 05:21:36;;;;;;;3.65;0.50;;;9.70;99.90;;;;;;4977466;28;20043;-76
2023/01/11 05:24:03;;;;;;;1.60;0.52;;;9.50;99.90;;;;;;4977338;28;20129;-72
2023/01/11 05:26:32;;;;;;;4.00;0.50;;;9.40;99.90;;;;;;4977300;28;20086;-73
2023/01/11 05:29:05;;;;;;;1.92;0.50;;;9.30;99.90;;;;;;4977775;28;20061;-76
2023/01/11 05:31:32;;;;;;;1.90;0.60;;;9.20;99.90;;;;;;4977295;28;20121;-74
2023/01/11 05:33:58;;;;;;;4.30;0.50;;;9.20;99.90;;;;;;4977059;28;20046;-74
2023/01/11 05:36:25;;;;;;;2.20;0.50;;;9.10;99.90;;;;;;4977890;28;20100;-76
2023/01/11 05:38:53;;;;;;;3.70;0.63;;;9.10;99.90;;;;;;4977105;28;20138;-74
2023/01/11 05:41:21;;;;;;;3.08;0.60;;;9.20;99.90;;;;;;4977788;28;20433;-74
2023/01/11 05:46:34;;;;;;;4.65;0.90;;;9.10;99.90;;;;;;4977213;28;20496;-73
2023/01/11 05:49:01;;;;;;;6.10;1.20;;;9.10;99.90;;;;;;4976537;28;20039;-74
2023/01/11 05:51:29;;;;;;;5.22;1.00;;;9.10;99.90;;;;;;4975867;28;20047;-73
2023/01/11 05:53:56;;;;;;;7.18;1.00;;;9.20;99.90;;;;;;4976729;28;20121;-74
2023/01/11 05:56:22;;;;;;;4.45;1.30;;;9.20;99.90;;;;;;4976778;28;20054;-73
2023/01/11 05:58:48;;;;;;;4.10;1.20;;;9.30;99.90;;;;;;4975516;28;20456;-72
2023/01/11 06:01:15;;;;;;;3.80;0.80;;;9.30;99.90;;;;;;4976690;28;20361;-77
2023/01/11 06:03:41;;;;;;;5.15;1.20;;;9.30;99.90;;;;;;4976559;28;20072;-73
2023/01/11 06:06:07;;;;;;;5.07;0.80;;;9.40;99.90;;;;;;4975037;28;20099;-72
2023/01/11 06:08:33;;;;;;;3.40;0.82;;;9.40;99.90;;;;;;4976537;28;20086;-73
2023/01/11 06:10:58;;;;;;;6.35;1.25;;;9.50;99.90;;;;;;4976508;28;20058;-73
2023/01/11 06:13:28;;;;;;;6.55;1.00;;;9.50;99.90;;;;;;4976952;28;20062;-74
2023/01/11 06:16:02;;;;;;;5.97;0.80;;;9.40;99.90;;;;;;4976443;28;20070;-74
2023/01/11 06:18:29;;;;;;;4.25;0.85;;;9.40;99.90;;;;;;4976703;28;20049;-73
2023/01/11 06:20:56;;;;;;;6.45;1.13;;;9.50;99.90;;;;;;4976404;28;20050;-72
2023/01/11 06:23:22;;;;;;;6.05;1.38;;;9.40;99.90;;;;;;4976288;28;20054;-73
2023/01/11 06:25:48;;;;;;;10.60;1.10;;;9.40;99.90;;;;;;4975309;28;20395;-73
2023/01/11 06:28:14;;;;;;;8.90;1.23;;;9.40;99.90;;;;;;4976037;28;20134;-73
2023/01/11 06:30:40;;;;;;;6.00;1.33;;;9.40;99.90;;;;;;4974989;28;20049;-72
2023/01/11 06:33:06;;;;;;;6.82;1.25;;;9.40;99.90;;;;;;4976091;28;20050;-73
2023/01/11 06:35:42;;;;;;;10.68;1.30;;;9.50;99.90;;;;;;4975908;28;20062;-73
2023/01/11 06:38:12;;;;;;;17.13;1.58;;;9.50;99.90;;;;;;4975301;28;20058;-73
2023/01/11 06:40:39;;;;;;;13.05;1.80;;;9.40;99.90;;;;;;4975954;28;20098;-73
2023/01/11 06:43:06;;;;;;;13.32;1.83;;;9.50;99.90;;;;;;4975946;28;20054;-73
2023/01/11 06:45:32;;;;;;;13.02;1.63;;;9.50;99.90;;;;;;4975889;28;20050;-72
2023/01/11 06:47:58;;;;;;;6.75;1.33;;;9.50;99.90;;;;;;4974710;28;20400;-73
2023/01/11 06:50:24;;;;;;;10.23;1.38;;;9.50;99.90;;;;;;4976045;28;20133;-73
2023/01/11 06:52:54;;;;;;;10.85;1.23;;;9.50;99.90;;;;;;4975727;28;20058;-73
2023/01/11 06:55:21;;;;;;;12.38;1.55;;;9.50;99.90;;;;;;4974698;28;20125;-73
2023/01/11 06:57:47;;;;;;;11.65;1.63;;;9.50;99.90;;;;;;4975612;28;20043;-73
2023/01/11 07:00:13;;;;;;;10.40;1.73;;;9.50;99.90;;;;;;4975626;28;20213;-74
2023/01/11 07:02:39;;;;;;;9.02;1.20;;;9.50;99.90;;;;;;4974898;28;20047;-73
2023/01/11 07:05:04;;;;;;;10.23;1.10;;;9.50;99.90;;;;;;4975444;28;20049;-75
2023/01/11 07:07:30;;;;;;;4.68;1.40;;;9.60;99.90;;;;;;4975174;28;20148;-74
2023/01/11 07:09:56;;;;;;;11.68;1.10;;;9.50;99.90;;;;;;4975396;28;20050;-74
2023/01/11 07:12:22;;;;;;;8.55;1.23;;;9.50;99.90;;;;;;4975685;28;20050;-73
2023/01/11 07:14:48;;;;;;;11.13;1.90;;;9.60;99.90;;;;;;4975368;28;20049;-73
2023/01/11 07:17:14;;;;;;;6.43;1.23;;;9.60;99.90;;;;;;4974137;28;20149;-73
2023/01/11 07:19:39;;;;;;;8.55;1.30;;;9.60;99.90;;;;;;4975264;28;20469;-74
2023/01/11 07:22:05;;;;;;;6.43;1.02;;;9.50;99.90;;;;;;4975022;28;20090;-74
2023/01/11 07:24:31;;;;;;;9.25;1.15;;;9.50;99.90;;;;;;4974184;28;20051;-73
2023/01/11 07:27:00;;;;;;;6.55;0.95;;;9.60;99.90;;;;;;4974980;28;20047;-73
2023/01/11 07:29:26;;;;;;;6.85;1.00;;;9.50;99.90;;;;;;4958257;28;20097;-73
2023/01/11 07:31:52;;;;;;;7.32;1.05;;;9.50;99.90;;;;;;4975043;28;20150;-73
2023/01/11 07:34:18;;;;;;;9.25;1.05;;;9.50;99.90;;;;;;4973907;28;20393;-73
2023/01/11 07:36:43;;;;;;;5.05;1.77;;;9.60;99.90;;;;;;4975014;28;20047;-72
2023/01/11 07:39:09;;;;;;;8.90;1.33;;;9.70;99.90;;;;;;4973776;28;20054;-72
2023/01/11 07:44:19;;;;;;;8.95;0.75;;;9.50;99.90;;;;;;4975265;28;20404;-72
2023/01/11 07:46:45;;;;;;;5.63;1.02;;;9.50;99.90;;;;;;4973701;28;20046;-72
2023/01/11 07:49:11;;;;;;;9.60;0.88;;;9.50;99.90;;;;;;4973803;28;20085;-73
2023/01/11 07:51:36;;;;;;;7.18;1.20;;;9.50;99.90;;;;;;4974936;28;20053;-72
2023/01/11 07:54:02;;;;;;;3.92;1.35;;;9.40;99.90;;;;;;4974245;28;20045;-72
2023/01/11 07:56:29;;;;;;;8.07;1.80;;;9.50;99.90;;;;;;4974918;28;20054;-72
2023/01/11 07:58:55;;;;;;;7.97;0.93;;;9.40;99.90;;;;;;4974600;28;20411;-72
2023/01/11 08:01:22;;;;;;;5.85;0.70;;;9.40;99.90;;;;;;4974760;28;20137;-72
2023/01/11 08:03:48;;;;;;;7.70;0.90;;;9.30;99.90;;;;;;4974612;28;20035;-73
2023/01/11 08:06:15;;;;;;;7.90;1.42;;;9.40;99.90;;;;;;4973472;28;20051;-72
2023/01/11 08:08:41;;;;;;;6.35;0.90;;;9.30;99.90;;;;;;4974506;28;20473;-72
2023/01/11 08:16:36;;;;;;;6.93;1.17;;;9.40;99.90;;;;;;4974611;28;20057;-72
2023/01/11 08:19:01;;;;;;;7.32;1.38;;;9.30;99.90;;;;;;4974599;28;20043;-72
2023/01/11 08:21:27;;;;;;;5.97;1.75;;;9.50;99.90;;;;;;4974571;28;20129;-72
2023/01/11 08:23:55;;;;;;;5.93;1.33;;;9.30;99.90;;;;;;4974563;28;20082;-73
2023/01/11 08:26:25;;;;;;;6.72;1.58;;;9.30;99.90;;;;;;4975429;28;20047;-73
2023/01/11 08:28:50;;;;;;;5.18;1.10;;;9.30;99.90;;;;;;4979802;28;20098;-73
2023/01/11 08:31:16;;;;;;;8.52;1.13;;;9.30;99.90;;;;;;4957578;28;20047;-73
2023/01/11 08:33:42;;;;;;;10.55;1.20;;;9.40;99.90;;;;;;4974489;28;20047;-73
2023/01/11 08:36:10;;;;;;;7.03;1.20;;;9.30;99.90;;;;;;4974617;28;20130;-73
2023/01/11 08:38:35;;;;;;;6.07;1.40;;;9.30;99.90;;;;;;4974898;28;20178;-72
2023/01/11 08:41:09;;;;;;;6.45;1.90;;;9.30;99.90;;;;;;4974536;28;20503;-72
2023/01/11 08:43:36;;;;;;;6.95;1.25;;;9.30;99.90;;;;;;4978783;28;20057;-75
2023/01/11 08:46:01;;;;;;;7.72;1.60;;;9.30;99.90;;;;;;4974510;28;20174;-72
2023/01/11 08:48:27;;;;;;;10.15;1.40;;;9.30;99.90;;;;;;4973499;28;20133;-74
2023/01/11 08:50:53;;;;;;;8.90;1.70;;;9.30;99.90;;;;;;4974432;28;20054;-75
2023/01/11 08:53:19;;;;;;;9.43;1.20;;;9.30;99.90;;;;;;4974443;28;20046;-74
2023/01/11 08:55:49;;;;;;;6.75;1.08;;;9.20;99.90;;;;;;4973971;28;20524;-73
2023/01/11 08:58:15;;;;;;;10.05;1.25;;;9.20;99.90;;;;;;4973236;28;20055;-73
2023/01/11 09:00:41;;;;;;;9.88;1.25;;;9.20;99.90;;;;;;4974390;28;20046;-71
2023/01/11 09:03:07;;;;;;;3.75;0.93;;;9.20;99.90;;;;;;4973982;28;20055;-72
2023/01/11 09:05:33;;;;;;;8.82;1.15;;;9.20;99.90;;;;;;4974173;28;20065;-74
2023/01/11 09:07:59;;;;;;;6.95;1.23;;;9.20;99.90;;;;;;4974354;28;20090;-74
2023/01/11 09:10:28;;;;;;;4.95;1.15;;;9.20;99.90;;;;;;4973225;28;20042;-74
2023/01/11 09:12:55;;;;;;;12.75;1.40;;;9.20;99.90;;;;;;4974187;28;20130;-72
2023/01/11 09:15:21;;;;;;;10.57;1.10;;;9.10;99.90;;;;;;4974111;28;20129;-73
2023/01/11 09:17:47;;;;;;;5.10;1.23;;;9.10;99.90;;;;;;4974886;28;20046;-72
2023/01/11 09:20:13;;;;;;;7.70;0.90;;;9.10;99.90;;;;;;4977642;28;20105;-74
2023/01/11 09:22:39;;;;;;;6.65;0.70;;;9.00;99.90;;;;;;4976544;28;20119;-74
2023/01/11 09:25:06;;;;;;;9.00;1.00;;;9.40;99.90;;;;;;4976615;28;20485;-75
2023/01/11 09:27:32;;;;;;;4.10;0.90;;;9.00;99.90;;;;;;4960317;28;20194;-74
2023/01/11 09:29:57;;;;;;;6.40;0.90;;;9.00;99.90;;;;;;4977430;28;20129;-74
2023/01/11 09:32:23;;;;;;;6.97;0.75;;;9.00;99.90;;;;;;4977407;28;20057;-74
2023/01/11 09:34:52;;;;;;;8.32;0.80;;;8.90;99.90;;;;;;4977133;28;20051;-75
2023/01/11 09:37:18;;;;;;;8.27;0.80;;;8.90;99.90;;;;;;4977269;28;20058;-73
2023/01/11 09:39:45;;;;;;;7.63;1.00;;;8.90;99.90;;;;;;4977284;28;20062;-73
2023/01/11 09:42:25;;;;;;;7.18;0.90;;;8.80;99.90;;;;;;4977508;28;20053;-75
2023/01/11 09:44:59;;;;;;;4.65;0.95;;;8.80;99.90;;;;;;4977170;28;20058;-75
2023/01/11 09:47:39;;;;;;;6.20;0.90;;;8.80;99.90;;;;;;4977705;28;20134;-74
2023/01/11 09:50:18;;;;;;;5.93;0.90;;;8.70;99.90;;;;;;4977663;28;20082;-74
2023/01/11 09:52:53;;;;;;;3.78;0.80;;;8.80;99.90;;;;;;4977636;28;20401;-74
2023/01/11 09:55:29;;;;;;;3.65;0.55;;;8.80;99.90;;;;;;4976595;28;20046;-76
2023/01/11 09:58:27;;;;;;;6.05;0.75;;;8.90;99.90;;;;;;4977225;28;20388;-74
2023/01/11 10:01:19;;;;;;;6.80;0.80;;;8.90;99.90;;;;;;4977014;28;20058;-77
2023/01/11 10:04:25;;;;;;;6.28;1.58;;;8.90;99.90;;;;;;4968493;28;20047;-73
2023/01/11 10:07:28;;;;;;;4.97;0.60;;;8.90;99.90;;;;;;4976519;28;20063;-71
2023/01/11 10:10:42;;;;;;;6.47;1.23;;;9.00;99.90;;;;;;4976815;28;20063;-72
2023/01/11 10:13:41;;;;;;;7.63;0.90;;;9.00;99.90;;;;;;4970271;28;20286;-71
2023/01/11 10:16:42;;;;;;;4.15;0.82;;;9.00;99.90;;;;;;4977242;28;20058;-74
2023/01/11 10:19:18;;;;;;;8.02;0.90;;;9.00;99.90;;;;;;4955196;29;20106;-71
2023/01/11 10:21:59;;;;;;;11.43;1.33;;;9.10;99.90;;;;;;4973353;28;20125;-70
2023/01/11 10:24:36;;;;;;;5.25;0.80;;;9.10;99.90;;;;;;4977075;28;20090;-70
2023/01/11 10:27:07;;;;;;;5.22;0.80;;;9.10;99.90;;;;;;4976454;28;20051;-70
2023/01/11 10:29:58;;;;;;;6.15;0.80;;;9.00;99.90;;;;;;4976078;28;20051;-71
2023/01/11 10:33:05;;;;;;;5.90;1.13;;;9.10;99.90;;;;;;4976128;28;20129;-72
2023/01/11 10:38:50;;;;;;;7.25;0.65;;;9.10;99.90;;;;;;4976705;28;20457;-71
2023/01/11 10:41:25;;;;;;;3.80;0.73;;;9.20;99.90;;;;;;4976396;28;20134;-71
2023/01/11 10:44:25;;;;;;;4.40;0.85;;;9.20;99.90;;;;;;4975381;28;20054;-73
2023/01/11 10:46:54;;;;;;;4.28;1.30;;;9.20;99.90;;;;;;4972977;28;20059;-72
2023/01/11 10:49:54;;;;;;;4.95;0.88;;;9.20;99.90;;;;;;4975921;28;20086;-73
2023/01/11 10:52:32;;;;;;;7.13;0.90;;;9.20;99.90;;;;;;4975511;28;20496;-71
2023/01/11 10:55:01;;;;;;;5.57;0.70;;;9.20;99.90;;;;;;4975699;28;20400;-71
2023/01/11 10:57:54;;;;;;;6.30;0.93;;;9.30;99.90;;;;;;4975478;28;20054;-73
2023/01/11 11:00:20;;;;;;;4.22;0.50;;;9.30;99.90;;;;;;4975851;28;20055;-72
2023/01/11 11:03:08;;;;;;;4.32;0.57;;;9.30;99.90;;;;;;4974691;28;20055;-71
2023/01/11 11:05:39;;;;;;;6.85;1.40;;;9.30;99.90;;;;;;4975662;28;20054;-71
2023/01/11 11:08:11;;;;;;;5.55;0.80;;;9.30;99.90;;;;;;4975826;28;20145;-73
2023/01/11 11:10:52;;;;;;;8.20;0.88;;;9.30;99.90;;;;;;4974717;28;20113;-71
2023/01/11 11:13:29;;;;;;;4.25;0.93;;;9.50;99.90;;;;;;4975490;28;20050;-72
2023/01/11 11:16:03;;;;;;;7.95;0.93;;;9.40;99.90;;;;;;4975487;28;20267;-74
2023/01/11 11:18:28;;;;;;;8.20;1.00;;;9.50;99.90;;;;;;4975136;28;20468;-72
2023/01/11 11:21:01;;;;;;;5.15;1.65;;;9.80;99.90;;;;;;4974427;28;20077;-72
2023/01/11 11:23:28;;;;;;;3.33;1.05;;;9.40;99.90;;;;;;4975882;28;20073;-73
2023/01/11 11:26:00;;;;;;;3.33;0.57;;;9.50;99.90;;;;;;4975331;28;20126;-72
2023/01/11 11:28:31;;;;;;;5.80;1.15;;;9.40;99.90;;;;;;4975366;28;20116;-70
2023/01/11 11:31:02;;;;;;;10.07;1.00;;;9.50;99.90;;;;;;4977829;28;20106;-74
2023/01/11 11:33:35;;;;;;;7.80;1.10;;;9.50;99.90;;;;;;4978619;28;20134;-72
2023/01/11 11:36:07;;;;;;;8.10;1.90;;;9.50;99.90;;;;;;4975133;28;20050;-70
2023/01/11 11:38:35;;;;;;;3.70;0.88;;;9.60;99.90;;;;;;4974196;28;20059;-70
2023/01/11 11:41:18;;;;;;;5.47;0.85;;;9.70;99.90;;;;;;4975115;28;20113;-72
2023/01/11 11:43:46;;;;;;;8.88;0.90;;;9.70;99.90;;;;;;4975651;28;20078;-69
2023/01/11 11:46:14;;;;;;;5.50;0.80;;;9.70;99.90;;;;;;4975012;28;20070;-70
2023/01/11 11:48:44;;;;;;;10.27;1.35;;;9.70;99.90;;;;;;4974769;28;20069;-72
2023/01/11 11:51:21;;;;;;;4.72;0.50;;;9.70;99.90;;;;;;4973775;28;20362;-73
2023/01/11 11:53:52;;;;;;;8.27;1.27;;;9.70;99.90;;;;;;4975620;28;20048;-70
2023/01/11 11:56:26;;;;;;;9.85;1.05;;;9.60;99.90;;;;;;4973504;28;20502;-72
2023/01/11 11:58:52;;;;;;;7.57;1.08;;;9.60;99.90;;;;;;4973724;28;20503;-70
2023/01/11 12:01:29;;;;;;;8.13;1.30;;;9.60;99.90;;;;;;4974788;28;20090;-70
2023/01/11 12:04:13;;;;;;;6.53;1.23;;;9.60;99.90;;;;;;4975358;28;20039;-70
2023/01/11 12:06:40;;;;;;;6.65;1.08;;;9.60;99.90;;;;;;4974502;28;20059;-70
2023/01/11 12:09:25;;;;;;;7.72;1.02;;;9.50;99.90;;;;;;4975084;28;20058;-70
2023/01/11 12:11:51;;;;;;;7.20;1.70;;;9.60;99.90;;;;;;4975327;28;20387;-72
2023/01/11 12:14:22;;;;;;;7.00;1.00;;;9.60;99.90;;;;;;4975411;28;20043;-71
2023/01/11 12:16:48;;;;;;;8.05;1.13;;;9.50;99.90;;;;;;4975549;28;20354;-72
2023/01/11 12:19:37;;;;;;;8.00;0.90;;;9.50;99.90;;;;;;4974685;28;20043;-74
2023/01/11 12:22:11;;;;;;;9.05;2.17;;;9.40;99.90;;;;;;4975769;28;20047;-71
2023/01/11 12:24:36;;;;;;;;;;;9.30;99.90;;;;;;4974832;28;20055;-71
2023/01/11 12:27:18;;;;;;;7.55;1.00;;;9.20;99.90;;;;;;4975381;28;20382;-71
2023/01/11 12:29:54;;;;;;;7.35;1.73;;;9.20;99.90;;;;;;4975456;28;20047;-72
2023/01/11 12:32:50;;;;;;;9.90;1.10;;;9.20;99.90;;;;;;4975188;28;20047;-74
2023/01/11 12:35:24;;;;;;;7.57;1.10;;;9.20;99.90;;;;;;4957478;28;20055;-72
2023/01/11 12:38:02;;;;;;;7.60;1.08;;;9.30;99.90;;;;;;4974875;28;20055;-71
2023/01/11 12:40:51;;;;;;;5.88;1.63;;;9.30;99.90;;;;;;4974820;28;20059;-72
2023/01/11 12:43:36;;;;;;;12.75;1.73;;;9.30;99.90;;;;;;4975068;28;20043;-72
2023/01/11 12:46:39;;;;;;;9.82;1.60;;;9.40;99.90;;;;;;4974502;28;20059;-72
2023/01/11 12:49:22;;;;;;;11.65;1.10;;;9.30;99.90;;;;;;4974969;28;20055;-72
2023/01/11 12:52:25;;;;;;;8.25;1.00;;;9.40;99.90;;;;;;4974297;28;20046;-72
2023/01/11 12:55:13;;;;;;;11.40;1.38;;;9.40;99.90;;;;;;4977793;28;20544;-72
2023/01/11 12:57:52;;;;;;;10.40;1.23;;;9.40;99.90;;;;;;4978070;28;20051;-72
2023/01/11 13:00:26;;;;;;;10.70;1.33;;;9.40;99.90;;;;;;4978006;28;20090;-71
2023/01/11 13:03:14;;;;;;;6.15;1.02;;;9.40;99.90;;;;;;4978264;28;20374;-72
2023/01/11 13:06:01;;;;;;;6.97;1.40;;;9.50;99.90;;;;;;4977851;28;20047;-70
2023/01/11 13:08:33;;;;;;;7.90;1.15;;;9.60;99.90;;;;;;4979565;28;20063;-74
2023/01/11 13:11:33;;;;;;;11.38;1.38;;;9.60;99.90;;;;;;4978187;28;20444;-71
2023/01/11 13:14:18;;;;;;;6.25;1.00;;;9.60;99.90;;;;;;4961593;28;20051;-72
2023/01/11 13:17:10;;;;;;;7.70;1.52;;;9.60;99.90;;;;;;4977639;28;20059;-71
2023/01/11 13:20:02;;;;;;;10.52;1.33;;;9.60;99.90;;;;;;4961115;28;20505;-73
2023/01/11 13:22:36;;;;;;;9.77;1.08;;;9.60;99.90;;;;;;4978420;28;20081;-70
2023/01/11 13:25:12;;;;;;;10.43;1.38;;;9.60;99.90;;;;;;4977559;28;20045;-72
2023/01/11 13:27:39;;;;;;;10.10;1.08;;;9.60;99.90;;;;;;4977564;28;20108;-70
2023/01/11 13:30:09;;;;;;;8.75;1.10;;;9.60;99.90;;;;;;4977401;28;20082;-72
2023/01/11 13:32:38;;;;;;;11.35;1.75;;;9.50;99.90;;;;;;4976312;28;20058;-70
2023/01/11 13:35:18;;;;;;;10.38;1.08;;;9.50;99.90;;;;;;4977792;28;20043;-69
2023/01/11 13:37:47;;;;;;;8.68;1.40;;;9.50;99.90;;;;;;4978185;28;20448;-69
2023/01/11 13:40:35;;;;;;;9.70;1.40;;;9.40;99.90;;;;;;4976300;28;20051;-70
2023/01/11 13:43:12;;;;;;;15.05;1.75;;;9.40;99.90;;;;;;4976058;28;20050;-69
2023/01/11 13:45:57;;;;;;;8.85;1.50;;;9.40;99.90;;;;;;4977996;28;20389;-70
2023/01/11 13:48:25;;;;;;;12.07;1.70;;;9.40;99.90;;;;;;4977789;28;20058;-70